Cipolletti, Argentina
Current Conditions -  °F | °C
As of 2:00 PM on Friday 19 Dec 2014 (Local Time) from SAZN Reporting Station
Clear Clear  
Wind Chill: 77°   Ceiling: Unl
Heat Index: 77°   Visibility: 6mi
Dew Point: 37°   Wind: 9mph
Humidity: 24%   Direction: 230°SW
Pressure: 29.53"   Gusts: 39mph
Location:  38.94°S, 67.95°W
Report Text: SAZN 191700Z 23008G34KT CAVOK 25/03 Q1000
Loading
Personal Weather Stations






























Interactive Weather Map New forecast layout! Learn more

10-Day Weather Forecast

Advertisements
Track Severe Weather on mobile